Time;durP1;ratioP1;P1;durP2;ratioP2;P2;SDS_P1;SDS_P2;PMS_P1;PMS_P2;Temp;Humidity;BMP_temperature;BMP_pressure;BME280_temperature;BME280_humidity;BME280_pressure;Samples;Min_cycle;Max_cycle;Signal;HPM_P1;HPM_P2
2023/08/25 00:00:09;;;;;;;4.60;3.40;;;;;;;;;;4950049;29;20536;-88
2023/08/25 00:02:36;;;;;;;4.37;3.50;;;;;;;;;;4963684;28;20472;-88
2023/08/25 00:05:03;;;;;;;4.20;3.10;;;;;;;;;;4967670;28;20464;-88
2023/08/25 00:07:29;;;;;;;4.40;3.50;;;;;;;;;;4965450;28;20437;-88
2023/08/25 00:09:55;;;;;;;3.50;3.00;;;;;;;;;;4958012;28;20485;-88
2023/08/25 00:12:22;;;;;;;3.20;2.90;;;;;;;;;;4962264;28;20501;-87
2023/08/25 00:14:48;;;;;;;3.93;3.20;;;;;;;;;;4947577;29;20431;-88
2023/08/25 00:17:14;;;;;;;5.23;3.77;;;;;;;;;;4940893;29;20451;-89
2023/08/25 00:19:40;;;;;;;5.70;3.10;;;;;;;;;;4941233;29;20486;-85
2023/08/25 00:22:06;;;;;;;3.50;2.90;;;;;;;;;;4927763;29;20454;-88
2023/08/25 00:24:32;;;;;;;3.40;2.97;;;;;;;;;;4933412;28;20812;-88
2023/08/25 00:26:59;;;;;;;4.17;3.63;;;;;;;;;;4958795;29;20872;-88
2023/08/25 00:29:25;;;;;;;4.60;2.90;;;;;;;;;;4924971;28;20483;-89
2023/08/25 00:31:51;;;;;;;3.80;3.07;;;;;;;;;;4926603;29;20451;-88
2023/08/25 00:34:17;;;;;;;3.40;2.80;;;;;;;;;;4937690;29;20439;-89
2023/08/25 00:36:43;;;;;;;3.87;2.80;;;;;;;;;;4940555;28;20438;-88
2023/08/25 00:39:10;;;;;;;5.80;2.90;;;;;;;;;;4965032;28;20475;-89
2023/08/25 00:41:36;;;;;;;5.60;2.80;;;;;;;;;;4945120;28;20435;-88
2023/08/25 00:44:02;;;;;;;3.10;2.80;;;;;;;;;;4961807;28;20542;-89
2023/08/25 00:46:28;;;;;;;4.27;2.87;;;;;;;;;;4940317;28;20814;-88
2023/08/25 00:48:54;;;;;;;4.20;2.67;;;;;;;;;;4942034;28;20513;-88
2023/08/25 00:51:20;;;;;;;4.27;3.20;;;;;;;;;;4939773;28;20537;-88
2023/08/25 00:53:46;;;;;;;4.10;2.47;;;;;;;;;;4949267;28;20447;-88
2023/08/25 00:56:15;;;;;;;3.70;2.50;;;;;;;;;;4956596;28;20504;-88
2023/08/25 00:58:41;;;;;;;3.50;2.90;;;;;;;;;;4945541;28;20466;-88
2023/08/25 01:01:07;;;;;;;4.33;3.13;;;;;;;;;;4944035;28;20443;-89
2023/08/25 01:03:33;;;;;;;3.30;2.80;;;;;;;;;;4965336;28;20430;-89
2023/08/25 01:05:59;;;;;;;3.17;2.70;;;;;;;;;;4962438;28;20490;-88
2023/08/25 01:08:25;;;;;;;5.00;2.97;;;;;;;;;;4962803;28;20863;-87
2023/08/25 01:10:52;;;;;;;3.00;2.63;;;;;;;;;;4957351;28;20435;-88
2023/08/25 01:13:28;;;;;;;3.23;2.33;;;;;;;;;;4966487;28;20418;-89
2023/08/25 01:15:54;;;;;;;3.50;2.60;;;;;;;;;;4961114;28;21382;-88
2023/08/25 01:18:23;;;;;;;3.53;3.00;;;;;;;;;;4967015;28;20433;-89
2023/08/25 01:20:49;;;;;;;3.67;3.07;;;;;;;;;;4969242;28;20859;-89
2023/08/25 01:23:34;;;;;;;4.43;3.27;;;;;;;;;;4953542;28;20450;-89
2023/08/25 01:26:00;;;;;;;5.87;3.10;;;;;;;;;;4975973;28;20433;-88
2023/08/25 01:28:28;;;;;;;6.10;3.10;;;;;;;;;;4972626;28;21060;-87
2023/08/25 01:30:58;;;;;;;4.20;2.67;;;;;;;;;;4910196;29;20848;-87
2023/08/25 01:33:24;;;;;;;3.00;2.63;;;;;;;;;;4892715;29;20452;-88
2023/08/25 01:35:52;;;;;;;6.37;2.67;;;;;;;;;;4910695;29;20437;-89
2023/08/25 01:38:25;;;;;;;4.90;2.77;;;;;;;;;;4912816;29;20467;-87
2023/08/25 01:40:52;;;;;;;3.40;2.60;;;;;;;;;;4905487;29;20425;-87
2023/08/25 01:43:21;;;;;;;4.87;2.70;;;;;;;;;;4918024;29;20460;-88
2023/08/25 01:45:47;;;;;;;3.70;2.73;;;;;;;;;;4897380;29;20464;-87
2023/08/25 01:48:13;;;;;;;4.00;2.70;;;;;;;;;;4909475;29;20480;-88
2023/08/25 01:50:39;;;;;;;4.23;2.77;;;;;;;;;;4885853;29;20464;-88
2023/08/25 01:53:05;;;;;;;4.20;3.10;;;;;;;;;;4912217;29;20816;-88
2023/08/25 01:55:32;;;;;;;3.70;2.60;;;;;;;;;;4928219;29;20483;-89
2023/08/25 01:57:58;;;;;;;4.80;2.90;;;;;;;;;;4887434;29;20441;-89
2023/08/25 02:00:24;;;;;;;3.33;3.03;;;;;;;;;;4920419;29;20510;-88
2023/08/25 02:02:50;;;;;;;3.50;2.73;;;;;;;;;;4944975;28;20455;-88
2023/08/25 02:05:16;;;;;;;4.00;2.30;;;;;;;;;;4940024;29;20470;-88
2023/08/25 02:07:42;;;;;;;6.00;2.93;;;;;;;;;;4973494;28;20488;-88
2023/08/25 02:10:08;;;;;;;4.43;2.60;;;;;;;;;;4962487;28;20515;-88
2023/08/25 02:12:34;;;;;;;5.40;2.90;;;;;;;;;;4960159;28;20959;-89
2023/08/25 02:15:00;;;;;;;4.13;2.50;;;;;;;;;;4951136;28;20452;-88
2023/08/25 02:17:26;;;;;;;9.10;2.87;;;;;;;;;;4955020;28;20812;-89
2023/08/25 02:19:52;;;;;;;4.40;2.67;;;;;;;;;;4956690;28;20465;-89
2023/08/25 02:22:18;;;;;;;3.63;2.50;;;;;;;;;;4964051;28;20430;-90
2023/08/25 02:24:44;;;;;;;3.53;2.63;;;;;;;;;;4952951;28;20409;-89
2023/08/25 02:27:10;;;;;;;6.80;3.03;;;;;;;;;;4952935;28;20436;-89
2023/08/25 02:29:37;;;;;;;5.00;2.83;;;;;;;;;;4950366;28;20433;-89
2023/08/25 02:32:02;;;;;;;4.70;2.30;;;;;;;;;;4943172;29;20462;-89
2023/08/25 02:34:29;;;;;;;3.97;2.40;;;;;;;;;;4942108;29;20439;-88
2023/08/25 02:36:55;;;;;;;3.90;2.67;;;;;;;;;;4951099;28;20970;-89
2023/08/25 02:39:21;;;;;;;3.90;3.20;;;;;;;;;;4947300;28;20481;-89
2023/08/25 02:41:47;;;;;;;3.57;2.67;;;;;;;;;;4944189;28;20476;-89
2023/08/25 02:44:13;;;;;;;4.80;3.60;;;;;;;;;;4954312;28;21220;-89
2023/08/25 02:46:40;;;;;;;2.87;2.57;;;;;;;;;;4981850;28;21040;-89
2023/08/25 02:49:06;;;;;;;5.60;2.83;;;;;;;;;;4958906;28;20435;-90
2023/08/25 02:51:32;;;;;;;5.93;3.07;;;;;;;;;;4950097;28;20434;-89
2023/08/25 02:53:58;;;;;;;7.70;3.30;;;;;;;;;;4945302;29;20514;-88
2023/08/25 02:56:24;;;;;;;4.23;2.93;;;;;;;;;;4955066;28;20441;-89
2023/08/25 02:58:50;;;;;;;3.80;3.20;;;;;;;;;;4946376;28;20581;-89
2023/08/25 03:01:16;;;;;;;3.30;2.80;;;;;;;;;;4967950;28;20897;-89
2023/08/25 03:03:43;;;;;;;5.30;3.40;;;;;;;;;;4947138;28;20426;-90
2023/08/25 03:06:09;;;;;;;3.83;2.67;;;;;;;;;;4973708;28;20479;-89
2023/08/25 03:08:35;;;;;;;4.97;2.70;;;;;;;;;;4963335;28;20442;-89
2023/08/25 03:11:03;;;;;;;3.60;2.80;;;;;;;;;;4956988;28;20476;-89
2023/08/25 03:13:31;;;;;;;3.73;3.23;;;;;;;;;;4964590;28;20472;-86
2023/08/25 03:15:59;;;;;;;4.60;2.97;;;;;;;;;;4969254;29;20445;-87
2023/08/25 03:18:25;;;;;;;3.23;2.57;;;;;;;;;;4944240;28;20445;-89
2023/08/25 03:20:52;;;;;;;3.00;2.70;;;;;;;;;;4955726;28;20491;-90
2023/08/25 03:23:18;;;;;;;4.33;3.27;;;;;;;;;;4954206;28;20446;-89
2023/08/25 03:25:44;;;;;;;3.90;3.20;;;;;;;;;;4950312;28;20458;-89
2023/08/25 03:28:10;;;;;;;4.30;2.90;;;;;;;;;;4948785;28;20430;-90
2023/08/25 03:30:37;;;;;;;4.80;3.23;;;;;;;;;;4955079;28;20450;-90
2023/08/25 03:33:03;;;;;;;7.20;2.67;;;;;;;;;;4967190;28;20437;-89
2023/08/25 03:35:33;;;;;;;6.97;3.23;;;;;;;;;;4951370;28;20448;-89
2023/08/25 03:37:58;;;;;;;3.60;3.00;;;;;;;;;;4956661;28;20428;-89
2023/08/25 03:40:25;;;;;;;4.70;2.93;;;;;;;;;;4951453;28;20857;-89
2023/08/25 03:42:51;;;;;;;4.00;2.57;;;;;;;;;;4951455;28;20991;-89
2023/08/25 03:45:17;;;;;;;4.40;2.90;;;;;;;;;;4947989;29;20887;-90
2023/08/25 03:47:43;;;;;;;11.53;3.30;;;;;;;;;;4938728;28;20852;-90
2023/08/25 03:50:09;;;;;;;4.70;2.70;;;;;;;;;;4933550;29;20811;-90
2023/08/25 03:52:35;;;;;;;5.43;3.10;;;;;;;;;;4947300;29;20925;-91
2023/08/25 03:55:01;;;;;;;3.80;3.33;;;;;;;;;;4936741;29;20442;-89
2023/08/25 03:57:27;;;;;;;5.70;2.60;;;;;;;;;;4921615;29;21010;-90
2023/08/25 03:59:53;;;;;;;6.73;3.67;;;;;;;;;;4941008;28;20454;-90
2023/08/25 04:02:19;;;;;;;6.23;3.10;;;;;;;;;;4948585;28;20459;-89
2023/08/25 04:04:45;;;;;;;5.17;3.20;;;;;;;;;;4923925;29;20804;-90
2023/08/25 04:07:12;;;;;;;5.07;3.03;;;;;;;;;;4930439;29;20427;-90
2023/08/25 04:09:39;;;;;;;3.70;3.07;;;;;;;;;;4961571;28;20526;-92
2023/08/25 04:12:05;;;;;;;6.30;3.27;;;;;;;;;;4957736;28;21002;-90
2023/08/25 04:14:31;;;;;;;3.40;2.83;;;;;;;;;;4940668;28;20458;-90
2023/08/25 04:16:57;;;;;;;8.67;3.50;;;;;;;;;;4945906;29;21044;-90
2023/08/25 04:19:23;;;;;;;5.43;4.17;;;;;;;;;;4946568;29;20446;-91
2023/08/25 04:21:49;;;;;;;9.33;2.90;;;;;;;;;;4967764;28;20449;-92
2023/08/25 04:24:17;;;;;;;4.60;2.60;;;;;;;;;;4942640;28;20437;-88
2023/08/25 04:26:43;;;;;;;4.03;3.63;;;;;;;;;;4950459;28;20489;-90
2023/08/25 04:29:09;;;;;;;4.43;3.40;;;;;;;;;;4946953;28;20833;-88
2023/08/25 04:31:35;;;;;;;5.77;3.17;;;;;;;;;;4945233;29;20490;-90
2023/08/25 04:34:01;;;;;;;5.63;3.17;;;;;;;;;;4944545;29;20449;-90
2023/08/25 04:36:27;;;;;;;3.77;2.90;;;;;;;;;;4946453;29;20440;-90
2023/08/25 04:38:53;;;;;;;5.70;3.23;;;;;;;;;;4935505;28;20477;-89
2023/08/25 04:41:20;;;;;;;6.07;3.50;;;;;;;;;;4938155;28;20541;-90
2023/08/25 04:43:46;;;;;;;4.13;2.97;;;;;;;;;;4930262;29;20462;-89
2023/08/25 04:46:12;;;;;;;5.60;4.40;;;;;;;;;;4944236;28;20438;-89
2023/08/25 04:48:39;;;;;;;5.20;3.40;;;;;;;;;;4941708;29;20431;-90
2023/08/25 04:51:11;;;;;;;4.30;3.10;;;;;;;;;;4930912;29;20438;-90
2023/08/25 04:53:37;;;;;;;7.83;3.10;;;;;;;;;;4934704;29;20435;-90
2023/08/25 04:56:03;;;;;;;5.97;3.23;;;;;;;;;;4943289;29;20455;-90
2023/08/25 04:58:29;;;;;;;4.83;3.70;;;;;;;;;;4944395;29;20916;-89
2023/08/25 05:00:55;;;;;;;7.90;3.57;;;;;;;;;;4940783;29;20433;-90
2023/08/25 05:03:21;;;;;;;4.70;3.33;;;;;;;;;;4951618;28;20910;-91
2023/08/25 05:05:47;;;;;;;7.07;3.53;;;;;;;;;;4948958;28;20503;-90
2023/08/25 05:08:13;;;;;;;4.17;3.10;;;;;;;;;;4953132;28;20941;-90
2023/08/25 05:10:39;;;;;;;5.17;3.70;;;;;;;;;;4939320;29;20461;-90
2023/08/25 05:13:07;;;;;;;7.80;5.30;;;;;;;;;;4954039;28;20477;-90
2023/08/25 05:15:33;;;;;;;9.07;3.87;;;;;;;;;;4943238;28;20439;-90
2023/08/25 05:17:59;;;;;;;4.47;3.10;;;;;;;;;;4951662;28;20425;-90
2023/08/25 05:20:25;;;;;;;5.10;3.43;;;;;;;;;;4948685;28;20465;-90
2023/08/25 05:22:51;;;;;;;4.70;3.40;;;;;;;;;;4960276;28;20434;-92
2023/08/25 05:25:20;;;;;;;5.27;3.30;;;;;;;;;;4961682;28;20418;-90
2023/08/25 05:27:47;;;;;;;5.60;3.07;;;;;;;;;;4961463;28;20439;-89
2023/08/25 05:30:13;;;;;;;4.10;2.93;;;;;;;;;;4946620;28;20539;-89
2023/08/25 05:32:39;;;;;;;3.60;2.90;;;;;;;;;;4955182;28;20441;-89
2023/08/25 05:35:05;;;;;;;4.50;2.77;;;;;;;;;;4965052;28;20866;-88
2023/08/25 05:37:33;;;;;;;4.97;3.50;;;;;;;;;;4946964;28;20430;-88
2023/08/25 05:39:59;;;;;;;5.83;3.13;;;;;;;;;;4949466;28;20453;-90
2023/08/25 05:42:27;;;;;;;4.27;2.90;;;;;;;;;;4949171;29;20433;-90
2023/08/25 05:44:53;;;;;;;5.47;3.23;;;;;;;;;;4968213;28;20446;-90
2023/08/25 05:47:19;;;;;;;3.17;2.60;;;;;;;;;;4950728;28;20465;-89
2023/08/25 05:49:45;;;;;;;5.83;3.87;;;;;;;;;;4949483;28;20794;-89
2023/08/25 05:52:14;;;;;;;5.10;3.63;;;;;;;;;;4971079;28;20399;-89
2023/08/25 05:54:40;;;;;;;5.73;3.30;;;;;;;;;;4943327;28;20422;-90
2023/08/25 05:57:06;;;;;;;4.63;3.40;;;;;;;;;;4945328;29;20570;-89
2023/08/25 05:59:32;;;;;;;4.57;3.13;;;;;;;;;;4951677;28;20499;-89
2023/08/25 06:01:58;;;;;;;5.50;3.60;;;;;;;;;;4969222;28;20417;-88
2023/08/25 06:04:25;;;;;;;4.00;2.80;;;;;;;;;;4953816;28;20441;-89
2023/08/25 06:06:51;;;;;;;6.40;3.67;;;;;;;;;;4938040;29;20415;-88
2023/08/25 06:09:17;;;;;;;4.70;3.43;;;;;;;;;;4951609;28;20429;-89
2023/08/25 06:11:46;;;;;;;4.20;2.97;;;;;;;;;;4964648;28;20454;-89
2023/08/25 06:14:12;;;;;;;5.23;3.37;;;;;;;;;;4950380;28;20425;-88
2023/08/25 06:16:38;;;;;;;4.70;2.67;;;;;;;;;;4947693;28;20540;-89
2023/08/25 06:19:06;;;;;;;6.33;5.10;;;;;;;;;;4956663;28;20521;-88
2023/08/25 06:21:32;;;;;;;3.73;3.27;;;;;;;;;;4965593;28;20432;-90
2023/08/25 06:23:58;;;;;;;8.63;3.70;;;;;;;;;;4955621;28;20409;-90
2023/08/25 06:26:24;;;;;;;4.03;2.97;;;;;;;;;;4948519;28;20433;-87
2023/08/25 06:28:56;;;;;;;7.10;4.40;;;;;;;;;;4944138;29;20451;-87
2023/08/25 06:31:23;;;;;;;7.50;3.47;;;;;;;;;;4948466;28;21014;-87
2023/08/25 06:33:49;;;;;;;5.20;4.10;;;;;;;;;;4952344;28;20484;-87
2023/08/25 06:36:15;;;;;;;8.00;4.20;;;;;;;;;;4953522;28;20437;-88
2023/08/25 06:38:41;;;;;;;3.80;3.40;;;;;;;;;;4928598;29;20415;-88
2023/08/25 06:41:08;;;;;;;6.43;4.03;;;;;;;;;;4928947;29;20778;-90
2023/08/25 06:43:34;;;;;;;5.03;3.60;;;;;;;;;;4945145;28;20465;-88
2023/08/25 06:46:00;;;;;;;4.97;3.70;;;;;;;;;;4946429;28;20434;-88
2023/08/25 06:48:26;;;;;;;6.50;4.03;;;;;;;;;;4951559;28;20417;-89
2023/08/25 06:50:52;;;;;;;5.43;3.80;;;;;;;;;;4948062;28;20464;-90
2023/08/25 06:53:18;;;;;;;5.10;3.80;;;;;;;;;;4969497;28;20453;-88
2023/08/25 06:55:44;;;;;;;8.20;4.97;;;;;;;;;;4953690;28;20904;-87
2023/08/25 06:58:11;;;;;;;6.40;4.63;;;;;;;;;;4949835;29;20427;-89
2023/08/25 07:00:36;;;;;;;5.00;4.47;;;;;;;;;;4963166;28;21066;-89
2023/08/25 07:03:03;;;;;;;7.90;4.60;;;;;;;;;;4950540;28;20481;-87
2023/08/25 07:05:29;;;;;;;4.83;4.33;;;;;;;;;;4950041;28;20456;-87
2023/08/25 07:07:56;;;;;;;4.93;4.43;;;;;;;;;;4949246;29;20805;-88
2023/08/25 07:10:22;;;;;;;6.43;4.10;;;;;;;;;;4957884;28;20511;-89
2023/08/25 07:12:48;;;;;;;4.80;4.30;;;;;;;;;;4965408;28;20442;-88
2023/08/25 07:15:14;;;;;;;5.07;4.57;;;;;;;;;;4950480;28;20445;-89
2023/08/25 07:17:43;;;;;;;7.47;5.03;;;;;;;;;;4947767;29;20474;-88
2023/08/25 07:20:10;;;;;;;15.03;4.30;;;;;;;;;;4956052;28;20464;-89
2023/08/25 07:22:36;;;;;;;15.70;4.40;;;;;;;;;;4966431;28;20492;-89
2023/08/25 07:25:02;;;;;;;8.30;3.87;;;;;;;;;;4952342;28;20520;-89
2023/08/25 07:27:28;;;;;;;5.47;3.60;;;;;;;;;;4965329;28;20505;-89
2023/08/25 07:29:54;;;;;;;6.40;3.57;;;;;;;;;;4966986;28;20449;-90
2023/08/25 07:32:21;;;;;;;6.53;3.90;;;;;;;;;;4971926;28;20953;-89
2023/08/25 07:34:48;;;;;;;5.93;3.63;;;;;;;;;;4954853;28;20444;-89
2023/08/25 07:37:14;;;;;;;7.13;4.57;;;;;;;;;;4954349;28;20418;-89
2023/08/25 07:39:40;;;;;;;6.10;4.37;;;;;;;;;;4956173;29;20489;-88
2023/08/25 07:42:07;;;;;;;9.77;4.90;;;;;;;;;;4950446;28;20862;-89
2023/08/25 07:44:33;;;;;;;4.90;4.20;;;;;;;;;;4953841;28;20425;-90
2023/08/25 07:46:59;;;;;;;6.83;4.80;;;;;;;;;;4951833;28;20437;-89
2023/08/25 07:49:25;;;;;;;4.60;4.10;;;;;;;;;;4966584;28;20959;-89
2023/08/25 07:51:52;;;;;;;5.00;4.37;;;;;;;;;;4947716;29;20418;-88
2023/08/25 07:54:18;;;;;;;9.03;4.50;;;;;;;;;;4947348;29;20432;-88
2023/08/25 07:56:45;;;;;;;4.83;3.97;;;;;;;;;;4940583;29;20431;-89
2023/08/25 07:59:11;;;;;;;6.43;4.10;;;;;;;;;;4929729;29;20443;-89
2023/08/25 08:01:40;;;;;;;12.93;4.30;;;;;;;;;;4921653;29;20427;-87
2023/08/25 08:04:07;;;;;;;6.50;4.00;;;;;;;;;;5173979;23;20514;-87
2023/08/25 08:06:38;;;;;;;4.40;3.93;;;;;;;;;;4965675;28;20990;-88
2023/08/25 08:09:06;;;;;;;3.63;3.20;;;;;;;;;;4948978;29;20458;-87
2023/08/25 08:11:32;;;;;;;3.33;3.03;;;;;;;;;;4931431;28;20831;-88
2023/08/25 08:13:58;;;;;;;6.93;4.07;;;;;;;;;;4933068;29;20454;-89
2023/08/25 08:16:24;;;;;;;6.77;4.33;;;;;;;;;;4946493;29;21005;-90
2023/08/25 08:18:51;;;;;;;6.13;3.90;;;;;;;;;;4963852;29;20462;-87
2023/08/25 08:21:17;;;;;;;4.90;3.80;;;;;;;;;;4926265;29;20533;-88
2023/08/25 08:23:43;;;;;;;6.20;4.33;;;;;;;;;;4935854;28;20510;-89
2023/08/25 08:26:09;;;;;;;5.70;3.97;;;;;;;;;;4949058;28;20481;-89
2023/08/25 08:28:35;;;;;;;8.83;4.30;;;;;;;;;;4947117;28;20544;-87
2023/08/25 08:31:05;;;;;;;5.07;4.43;;;;;;;;;;4929430;28;20909;-88
2023/08/25 08:33:31;;;;;;;5.23;4.37;;;;;;;;;;4933672;28;20617;-89
2023/08/25 08:35:57;;;;;;;6.17;3.70;;;;;;;;;;4949300;28;20426;-88
2023/08/25 08:38:25;;;;;;;5.07;4.10;;;;;;;;;;4955728;28;20437;-90
2023/08/25 08:40:52;;;;;;;9.03;4.73;;;;;;;;;;4932500;29;20504;-91
2023/08/25 08:43:18;;;;;;;7.00;4.40;;;;;;;;;;4951188;29;20430;-91
2023/08/25 08:45:45;;;;;;;4.70;3.70;;;;;;;;;;4948950;29;20446;-91
2023/08/25 08:48:11;;;;;;;4.60;3.70;;;;;;;;;;4945441;29;20448;-91
2023/08/25 08:50:37;;;;;;;5.53;4.53;;;;;;;;;;4948034;28;20809;-92
2023/08/25 08:53:04;;;;;;;7.00;4.67;;;;;;;;;;4952398;28;20426;-91
2023/08/25 08:55:30;;;;;;;5.17;4.67;;;;;;;;;;4955903;28;20457;-90
2023/08/25 08:57:56;;;;;;;6.43;5.30;;;;;;;;;;4954445;28;20807;-91
2023/08/25 09:00:23;;;;;;;5.73;4.50;;;;;;;;;;4979246;28;20488;-91
2023/08/25 09:02:50;;;;;;;5.63;4.20;;;;;;;;;;4954931;28;20430;-91
2023/08/25 09:05:18;;;;;;;6.93;4.37;;;;;;;;;;4950160;28;20461;-90
2023/08/25 09:07:46;;;;;;;4.60;4.20;;;;;;;;;;4946172;28;20443;-91
2023/08/25 09:10:12;;;;;;;6.23;4.00;;;;;;;;;;4959725;28;20430;-90
2023/08/25 09:12:38;;;;;;;7.20;4.27;;;;;;;;;;4951906;28;20509;-92
2023/08/25 09:15:07;;;;;;;6.20;4.43;;;;;;;;;;4955313;28;20769;-92
2023/08/25 09:17:35;;;;;;;6.43;4.50;;;;;;;;;;4950255;28;20430;-91
2023/08/25 09:20:10;;;;;;;5.23;4.40;;;;;;;;;;4975130;28;20474;-91
2023/08/25 09:22:36;;;;;;;7.87;4.70;;;;;;;;;;4961643;28;20438;-91
2023/08/25 09:25:02;;;;;;;4.77;3.53;;;;;;;;;;4953246;28;20762;-92
2023/08/25 09:27:28;;;;;;;7.40;4.43;;;;;;;;;;4950123;28;20423;-92
2023/08/25 09:30:03;;;;;;;5.10;4.13;;;;;;;;;;4952710;28;20445;-92
2023/08/25 09:32:30;;;;;;;5.40;4.30;;;;;;;;;;4948662;29;20500;-92
2023/08/25 09:34:56;;;;;;;6.17;4.63;;;;;;;;;;4967478;28;20435;-92
2023/08/25 09:37:22;;;;;;;6.60;4.50;;;;;;;;;;4969262;28;20517;-92
2023/08/25 09:39:55;;;;;;;4.50;3.87;;;;;;;;;;5242417;23;20497;-92
2023/08/25 09:42:23;;;;;;;5.33;3.90;;;;;;;;;;4988360;28;20445;-91
2023/08/25 09:44:55;;;;;;;10.07;4.67;;;;;;;;;;4973847;28;20425;-91
2023/08/25 09:47:21;;;;;;;5.67;4.53;;;;;;;;;;4971736;28;20959;-92
2023/08/25 09:49:47;;;;;;;5.23;4.60;;;;;;;;;;4988661;28;20405;-92
2023/08/25 09:52:13;;;;;;;6.20;4.00;;;;;;;;;;4961706;28;20419;-92
2023/08/25 09:54:46;;;;;;;5.23;4.73;;;;;;;;;;4979313;28;20426;-91
2023/08/25 09:57:12;;;;;;;4.27;3.87;;;;;;;;;;4993458;28;20417;-91
2023/08/25 09:59:38;;;;;;;6.87;4.27;;;;;;;;;;4970617;28;20457;-92
2023/08/25 10:02:05;;;;;;;4.53;3.63;;;;;;;;;;4985889;28;20417;-92
2023/08/25 10:04:32;;;;;;;4.17;3.57;;;;;;;;;;4985853;28;20410;-92
2023/08/25 10:06:59;;;;;;;6.23;3.80;;;;;;;;;;4982993;28;20449;-92
2023/08/25 10:09:33;;;;;;;5.83;4.03;;;;;;;;;;4982488;28;20459;-91
2023/08/25 10:11:59;;;;;;;4.13;3.73;;;;;;;;;;4951407;28;20503;-93
2023/08/25 10:14:26;;;;;;;7.00;3.80;;;;;;;;;;4980155;28;20729;-91
2023/08/25 10:16:53;;;;;;;5.90;3.70;;;;;;;;;;4978621;28;20951;-92
2023/08/25 10:24:31;;;;;;;5.80;3.50;;;;;;;;;;4990952;23;20503;-90
2023/08/25 10:26:57;;;;;;;4.90;3.50;;;;;;;;;;4958134;28;20442;-92
2023/08/25 10:29:23;;;;;;;4.23;3.43;;;;;;;;;;4951491;28;20429;-89
2023/08/25 10:31:51;;;;;;;3.70;3.27;;;;;;;;;;4986378;28;20430;-90
2023/08/25 10:34:38;;;;;;;3.80;3.30;;;;;;;;;;4974650;28;20498;-90
2023/08/25 10:37:07;;;;;;;5.37;3.40;;;;;;;;;;4937067;28;20451;-91
2023/08/25 10:39:49;;;;;;;5.83;4.03;;;;;;;;;;4949685;28;20458;-90
2023/08/25 10:42:34;;;;;;;4.30;3.10;;;;;;;;;;4959961;28;20511;-91
2023/08/25 10:45:07;;;;;;;6.03;3.30;;;;;;;;;;4956449;28;20454;-92
2023/08/25 10:47:41;;;;;;;4.20;2.97;;;;;;;;;;4941508;28;20437;-91
2023/08/25 10:50:07;;;;;;;4.70;3.13;;;;;;;;;;4955417;28;20437;-92
2023/08/25 10:52:35;;;;;;;6.63;2.67;;;;;;;;;;4954558;28;20450;-91
2023/08/25 10:55:21;;;;;;;5.13;4.03;;;;;;;;;;4956193;28;20577;-90
2023/08/25 10:57:50;;;;;;;4.47;3.80;;;;;;;;;;4971014;28;20427;-91
2023/08/25 11:00:27;;;;;;;4.33;3.23;;;;;;;;;;4955510;28;20556;-90
2023/08/25 11:02:53;;;;;;;5.93;3.90;;;;;;;;;;4946046;28;20449;-91
2023/08/25 11:05:34;;;;;;;4.27;3.37;;;;;;;;;;4952354;29;20419;-90
2023/08/25 11:08:04;;;;;;;5.80;3.70;;;;;;;;;;4969111;28;20420;-95
2023/08/25 11:10:36;;;;;;;4.40;3.77;;;;;;;;;;4961161;28;20467;-90
2023/08/25 11:13:07;;;;;;;5.10;3.10;;;;;;;;;;4932549;29;20423;-91
2023/08/25 11:57:04;;;;;;;5.17;3.80;;;;;;;;;;5002706;28;20477;-91
2023/08/25 11:59:30;;;;;;;5.00;4.40;;;;;;;;;;5000503;28;20459;-91
2023/08/25 12:02:01;;;;;;;5.20;4.37;;;;;;;;;;5003245;28;20451;-91
2023/08/25 12:04:27;;;;;;;5.93;4.30;;;;;;;;;;4980087;28;20445;-91
2023/08/25 12:06:53;;;;;;;6.70;4.17;;;;;;;;;;4968120;28;20866;-91
2023/08/25 12:09:25;;;;;;;7.60;5.93;;;;;;;;;;4964423;28;20496;-91
2023/08/25 12:11:53;;;;;;;7.57;5.70;;;;;;;;;;4981699;28;20444;-91
2023/08/25 12:14:26;;;;;;;5.70;4.50;;;;;;;;;;4982155;28;20520;-91
2023/08/25 12:16:52;;;;;;;6.20;4.27;;;;;;;;;;4983253;28;20422;-90
2023/08/25 12:19:19;;;;;;;6.30;4.60;;;;;;;;;;4985506;28;20472;-91
2023/08/25 12:21:50;;;;;;;5.17;4.60;;;;;;;;;;4986824;28;20536;-91
2023/08/25 12:24:16;;;;;;;6.50;3.83;;;;;;;;;;5001703;28;20464;-92
2023/08/25 12:26:42;;;;;;;5.67;4.50;;;;;;;;;;4969272;28;20452;-92
2023/08/25 12:29:08;;;;;;;7.97;5.20;;;;;;;;;;4999185;28;20444;-92
2023/08/25 12:31:34;;;;;;;6.13;4.07;;;;;;;;;;4998275;28;20457;-92
2023/08/25 12:34:00;;;;;;;5.23;4.70;;;;;;;;;;4998164;28;20441;-91
2023/08/25 12:36:26;;;;;;;8.40;4.87;;;;;;;;;;4973164;28;20944;-92
2023/08/25 12:38:52;;;;;;;4.10;3.70;;;;;;;;;;4989864;28;20521;-92
2023/08/25 12:41:18;;;;;;;8.33;4.30;;;;;;;;;;4966853;28;20960;-92
2023/08/25 12:43:44;;;;;;;6.90;4.63;;;;;;;;;;4967435;28;20418;-90
2023/08/25 12:46:10;;;;;;;5.13;4.63;;;;;;;;;;4965589;28;20441;-92
2023/08/25 12:48:36;;;;;;;4.77;3.90;;;;;;;;;;4983946;28;20456;-92
2023/08/25 12:51:02;;;;;;;5.27;4.10;;;;;;;;;;4964514;28;20463;-91
2023/08/25 12:53:28;;;;;;;5.30;4.80;;;;;;;;;;4968011;28;20436;-92
2023/08/25 12:55:54;;;;;;;9.47;5.10;;;;;;;;;;4965386;28;20441;-92
2023/08/25 12:58:20;;;;;;;5.83;4.67;;;;;;;;;;4964845;28;20409;-91
2023/08/25 13:00:46;;;;;;;7.37;4.90;;;;;;;;;;4964624;28;20870;-91
2023/08/25 13:03:12;;;;;;;5.70;3.97;;;;;;;;;;4967518;28;20471;-92
2023/08/25 13:05:38;;;;;;;5.03;4.30;;;;;;;;;;4964744;28;20470;-91
2023/08/25 13:08:04;;;;;;;5.30;4.03;;;;;;;;;;5002742;28;20455;-93
2023/08/25 13:10:30;;;;;;;4.73;4.10;;;;;;;;;;4962287;28;20444;-93
2023/08/25 13:12:56;;;;;;;10.00;4.90;;;;;;;;;;4967577;28;20440;-94
2023/08/25 13:15:22;;;;;;;5.07;4.57;;;;;;;;;;4964888;28;20524;-93
2023/08/25 13:17:49;;;;;;;7.37;5.10;;;;;;;;;;4968841;28;20433;-91
2023/08/25 13:20:15;;;;;;;8.80;4.80;;;;;;;;;;5007007;28;20463;-94
2023/08/25 13:22:41;;;;;;;4.40;3.43;;;;;;;;;;4968710;28;20412;-92
2023/08/25 13:25:08;;;;;;;5.03;4.50;;;;;;;;;;5007616;28;20439;-91
2023/08/25 13:27:37;;;;;;;6.10;4.90;;;;;;;;;;5003263;28;20516;-93
2023/08/25 13:30:03;;;;;;;5.90;5.30;;;;;;;;;;4971485;28;20445;-92
2023/08/25 13:32:29;;;;;;;5.20;4.70;;;;;;;;;;4965756;28;20437;-92
2023/08/25 13:34:55;;;;;;;5.93;4.40;;;;;;;;;;4976204;28;20447;-93
2023/08/25 13:37:21;;;;;;;8.30;5.43;;;;;;;;;;5002226;28;20478;-91
2023/08/25 13:39:47;;;;;;;5.97;4.70;;;;;;;;;;4971201;28;20457;-91
2023/08/25 13:42:13;;;;;;;6.13;4.60;;;;;;;;;;4965620;28;20453;-91
2023/08/25 13:44:39;;;;;;;5.40;4.90;;;;;;;;;;5005587;28;20532;-91
2023/08/25 13:47:09;;;;;;;6.00;4.73;;;;;;;;;;4965272;28;20409;-91
2023/08/25 13:49:40;;;;;;;5.80;4.30;;;;;;;;;;4967053;28;20429;-91
2023/08/25 13:52:06;;;;;;;6.93;4.60;;;;;;;;;;4966162;28;20476;-91
2023/08/25 13:54:32;;;;;;;4.80;4.30;;;;;;;;;;5003627;28;20429;-91
2023/08/25 13:56:58;;;;;;;5.50;4.93;;;;;;;;;;4991766;28;20427;-93
2023/08/25 13:59:24;;;;;;;6.50;4.57;;;;;;;;;;4992716;28;20475;-92
2023/08/25 14:01:50;;;;;;;5.60;4.70;;;;;;;;;;4962858;28;20421;-90
2023/08/25 14:04:16;;;;;;;5.27;4.50;;;;;;;;;;4992827;28;20552;-93
2023/08/25 14:06:43;;;;;;;4.53;4.13;;;;;;;;;;4968284;28;20428;-93
2023/08/25 14:09:09;;;;;;;6.57;4.97;;;;;;;;;;5008452;28;20423;-92
2023/08/25 14:11:35;;;;;;;8.13;4.47;;;;;;;;;;4982225;28;21000;-93
2023/08/25 14:14:01;;;;;;;6.40;4.07;;;;;;;;;;4988928;28;20483;-92
2023/08/25 14:16:27;;;;;;;8.53;4.30;;;;;;;;;;4962328;28;20452;-93
2023/08/25 14:18:53;;;;;;;5.30;4.70;;;;;;;;;;4964270;28;20844;-92
2023/08/25 14:21:19;;;;;;;5.97;4.30;;;;;;;;;;4957993;28;20584;-93
2023/08/25 14:23:45;;;;;;;5.03;4.57;;;;;;;;;;4969137;28;20553;-93
2023/08/25 14:26:11;;;;;;;7.40;5.30;;;;;;;;;;4984336;28;20466;-93
2023/08/25 14:28:37;;;;;;;6.17;5.03;;;;;;;;;;5004057;28;20472;-92
2023/08/25 14:31:05;;;;;;;7.80;4.50;;;;;;;;;;4996259;28;20435;-93
2023/08/25 14:33:31;;;;;;;5.40;4.73;;;;;;;;;;4991801;28;20504;-92
2023/08/25 14:35:57;;;;;;;5.10;4.60;;;;;;;;;;4989173;28;20416;-92
2023/08/25 14:38:23;;;;;;;5.50;4.33;;;;;;;;;;5000711;28;20464;-93
2023/08/25 14:40:50;;;;;;;9.50;5.10;;;;;;;;;;4964092;28;20551;-92
2023/08/25 14:43:16;;;;;;;4.93;4.43;;;;;;;;;;4989257;28;20448;-93
2023/08/25 14:45:42;;;;;;;6.63;4.63;;;;;;;;;;4966691;28;20420;-92
2023/08/25 14:48:08;;;;;;;7.90;4.83;;;;;;;;;;4983741;28;20439;-91
2023/08/25 14:50:34;;;;;;;5.73;4.80;;;;;;;;;;4976604;28;20444;-91
2023/08/25 14:53:00;;;;;;;6.90;4.53;;;;;;;;;;4989963;28;20440;-92
2023/08/25 14:55:26;;;;;;;4.93;4.43;;;;;;;;;;4966620;28;20428;-91
2023/08/25 14:57:52;;;;;;;5.90;5.23;;;;;;;;;;4967634;28;20277;-92
2023/08/25 15:00:18;;;;;;;5.70;5.10;;;;;;;;;;4993165;28;20467;-93
2023/08/25 15:02:44;;;;;;;6.80;4.80;;;;;;;;;;4961042;28;20441;-92
2023/08/25 15:05:10;;;;;;;6.80;5.17;;;;;;;;;;4962245;28;21088;-92
2023/08/25 15:07:36;;;;;;;4.40;4.00;;;;;;;;;;4965943;28;20500;-91
2023/08/25 15:10:03;;;;;;;5.30;4.80;;;;;;;;;;4938859;29;20411;-91
2023/08/25 15:12:29;;;;;;;4.70;4.03;;;;;;;;;;4940682;29;20442;-91
2023/08/25 15:14:59;;;;;;;5.40;4.70;;;;;;;;;;4922177;29;20526;-89
2023/08/25 15:17:25;;;;;;;5.73;5.13;;;;;;;;;;4940813;28;20490;-90
2023/08/25 15:19:51;;;;;;;5.13;4.70;;;;;;;;;;4938115;29;20462;-89
2023/08/25 15:22:18;;;;;;;5.60;4.90;;;;;;;;;;4941101;29;20430;-89
2023/08/25 15:24:44;;;;;;;6.80;5.07;;;;;;;;;;4938208;28;20630;-90
2023/08/25 15:27:10;;;;;;;6.20;4.97;;;;;;;;;;4945582;29;20430;-90